sensor_id;sensor_type;location;lat;lon;timestamp;P1;durP1;ratioP1;P2;durP2;ratioP2
20232;SDS011;37438;55.674;13.074;2023-08-20T00:01:26;8.15;;;5.22;;
20232;SDS011;37438;55.674;13.074;2023-08-20T00:04:32;5.70;;;4.55;;
20232;SDS011;37438;55.674;13.074;2023-08-20T00:07:40;5.85;;;4.60;;
20232;SDS011;37438;55.674;13.074;2023-08-20T00:10:45;5.07;;;4.13;;
20232;SDS011;37438;55.674;13.074;2023-08-20T00:13:50;6.75;;;4.78;;
20232;SDS011;37438;55.674;13.074;2023-08-20T00:16:54;6.78;;;3.70;;
20232;SDS011;37438;55.674;13.074;2023-08-20T00:19:59;4.65;;;3.60;;
20232;SDS011;37438;55.674;13.074;2023-08-20T00:23:04;4.97;;;3.80;;
20232;SDS011;37438;55.674;13.074;2023-08-20T00:26:09;6.18;;;4.53;;
20232;SDS011;37438;55.674;13.074;2023-08-20T00:29:14;5.93;;;4.00;;
20232;SDS011;37438;55.674;13.074;2023-08-20T00:32:19;5.57;;;3.95;;
20232;SDS011;37438;55.674;13.074;2023-08-20T00:35:24;9.55;;;5.30;;
20232;SDS011;37438;55.674;13.074;2023-08-20T00:38:29;6.82;;;5.32;;
20232;SDS011;37438;55.674;13.074;2023-08-20T00:41:33;9.10;;;5.38;;
20232;SDS011;37438;55.674;13.074;2023-08-20T00:44:38;9.75;;;5.95;;
20232;SDS011;37438;55.674;13.074;2023-08-20T00:47:45;8.90;;;5.00;;
20232;SDS011;37438;55.674;13.074;2023-08-20T00:50:50;7.18;;;5.65;;
20232;SDS011;37438;55.674;13.074;2023-08-20T00:53:55;10.93;;;6.32;;
20232;SDS011;37438;55.674;13.074;2023-08-20T00:56:59;9.60;;;5.53;;
20232;SDS011;37438;55.674;13.074;2023-08-20T01:00:06;9.43;;;7.05;;
20232;SDS011;37438;55.674;13.074;2023-08-20T01:03:14;9.38;;;5.93;;
20232;SDS011;37438;55.674;13.074;2023-08-20T01:13:01;7.20;;;5.07;;
20232;SDS011;37438;55.674;13.074;2023-08-20T01:16:06;6.90;;;6.10;;
20232;SDS011;37438;55.674;13.074;2023-08-20T01:19:12;5.95;;;5.45;;
20232;SDS011;37438;55.674;13.074;2023-08-20T01:22:34;6.13;;;5.53;;
20232;SDS011;37438;55.674;13.074;2023-08-20T01:26:02;5.47;;;4.97;;
20232;SDS011;37438;55.674;13.074;2023-08-20T01:29:16;6.35;;;4.63;;
20232;SDS011;37438;55.674;13.074;2023-08-20T01:32:22;5.75;;;5.15;;
20232;SDS011;37438;55.674;13.074;2023-08-20T01:35:27;5.88;;;5.28;;
20232;SDS011;37438;55.674;13.074;2023-08-20T01:38:48;7.00;;;5.07;;
20232;SDS011;37438;55.674;13.074;2023-08-20T01:41:52;5.10;;;4.60;;
20232;SDS011;37438;55.674;13.074;2023-08-20T01:44:57;6.60;;;4.95;;
20232;SDS011;37438;55.674;13.074;2023-08-20T01:51:07;7.28;;;4.47;;
20232;SDS011;37438;55.674;13.074;2023-08-20T01:54:13;3.97;;;3.60;;
20232;SDS011;37438;55.674;13.074;2023-08-20T01:57:18;8.05;;;3.55;;
20232;SDS011;37438;55.674;13.074;2023-08-20T02:00:22;8.38;;;4.22;;
20232;SDS011;37438;55.674;13.074;2023-08-20T02:03:27;7.80;;;3.83;;
20232;SDS011;37438;55.674;13.074;2023-08-20T02:06:32;4.55;;;4.15;;
20232;SDS011;37438;55.674;13.074;2023-08-20T02:12:41;7.22;;;4.32;;
20232;SDS011;37438;55.674;13.074;2023-08-20T02:15:46;4.38;;;3.97;;
20232;SDS011;37438;55.674;13.074;2023-08-20T02:18:50;5.13;;;4.30;;
20232;SDS011;37438;55.674;13.074;2023-08-20T02:21:55;7.00;;;4.25;;
20232;SDS011;37438;55.674;13.074;2023-08-20T02:25:00;4.10;;;3.80;;
20232;SDS011;37438;55.674;13.074;2023-08-20T02:28:04;4.43;;;4.03;;
20232;SDS011;37438;55.674;13.074;2023-08-20T02:34:15;4.43;;;4.03;;
20232;SDS011;37438;55.674;13.074;2023-08-20T02:37:20;4.22;;;3.88;;
20232;SDS011;37438;55.674;13.074;2023-08-20T02:40:24;3.55;;;3.25;;
20232;SDS011;37438;55.674;13.074;2023-08-20T02:43:29;4.40;;;3.20;;
20232;SDS011;37438;55.674;13.074;2023-08-20T02:46:37;3.55;;;3.25;;
20232;SDS011;37438;55.674;13.074;2023-08-20T02:49:42;3.25;;;2.95;;
20232;SDS011;37438;55.674;13.074;2023-08-20T02:52:47;3.83;;;3.00;;
20232;SDS011;37438;55.674;13.074;2023-08-20T02:55:52;5.35;;;2.97;;
20232;SDS011;37438;55.674;13.074;2023-08-20T02:58:57;3.38;;;3.10;;
20232;SDS011;37438;55.674;13.074;2023-08-20T03:02:01;3.13;;;2.50;;
20232;SDS011;37438;55.674;13.074;2023-08-20T03:05:10;3.95;;;2.53;;
20232;SDS011;37438;55.674;13.074;2023-08-20T03:08:14;3.35;;;2.90;;
20232;SDS011;37438;55.674;13.074;2023-08-20T03:14:23;3.00;;;2.77;;
20232;SDS011;37438;55.674;13.074;2023-08-20T03:17:31;3.20;;;2.90;;
20232;SDS011;37438;55.674;13.074;2023-08-20T03:20:36;4.38;;;3.00;;
20232;SDS011;37438;55.674;13.074;2023-08-20T03:23:41;2.78;;;2.58;;
20232;SDS011;37438;55.674;13.074;2023-08-20T03:26:45;2.90;;;2.70;;
20232;SDS011;37438;55.674;13.074;2023-08-20T03:29:52;2.95;;;2.55;;
20232;SDS011;37438;55.674;13.074;2023-08-20T03:32:57;2.80;;;2.60;;
20232;SDS011;37438;55.674;13.074;2023-08-20T03:39:06;3.53;;;3.25;;
20232;SDS011;37438;55.674;13.074;2023-08-20T03:42:10;4.85;;;3.45;;
20232;SDS011;37438;55.674;13.074;2023-08-20T03:45:15;4.65;;;4.15;;
20232;SDS011;37438;55.674;13.074;2023-08-20T03:48:20;4.22;;;3.83;;
20232;SDS011;37438;55.674;13.074;2023-08-20T03:51:25;4.10;;;3.63;;
20232;SDS011;37438;55.674;13.074;2023-08-20T03:54:29;4.18;;;3.88;;
20232;SDS011;37438;55.674;13.074;2023-08-20T03:57:34;4.78;;;4.38;;
20232;SDS011;37438;55.674;13.074;2023-08-20T04:00:41;5.47;;;4.20;;
20232;SDS011;37438;55.674;13.074;2023-08-20T04:03:46;4.68;;;4.00;;
20232;SDS011;37438;55.674;13.074;2023-08-20T04:06:52;5.38;;;3.80;;
20232;SDS011;37438;55.674;13.074;2023-08-20T04:13:00;4.20;;;3.85;;
20232;SDS011;37438;55.674;13.074;2023-08-20T04:16:05;6.03;;;4.63;;
20232;SDS011;37438;55.674;13.074;2023-08-20T04:19:10;4.65;;;4.25;;
20232;SDS011;37438;55.674;13.074;2023-08-20T04:22:14;12.98;;;5.40;;
20232;SDS011;37438;55.674;13.074;2023-08-20T04:25:19;4.90;;;4.50;;
20232;SDS011;37438;55.674;13.074;2023-08-20T04:28:24;6.72;;;5.35;;
20232;SDS011;37438;55.674;13.074;2023-08-20T04:31:29;5.95;;;4.95;;
20232;SDS011;37438;55.674;13.074;2023-08-20T04:34:41;9.07;;;6.13;;
20232;SDS011;37438;55.674;13.074;2023-08-20T04:37:46;10.15;;;5.85;;
20232;SDS011;37438;55.674;13.074;2023-08-20T04:40:51;6.78;;;5.57;;
20232;SDS011;37438;55.674;13.074;2023-08-20T04:43:56;6.38;;;5.22;;
20232;SDS011;37438;55.674;13.074;2023-08-20T04:47:01;5.35;;;4.82;;
20232;SDS011;37438;55.674;13.074;2023-08-20T04:50:08;5.68;;;5.05;;
20232;SDS011;37438;55.674;13.074;2023-08-20T04:53:14;7.47;;;5.07;;
20232;SDS011;37438;55.674;13.074;2023-08-20T04:56:20;6.85;;;5.15;;
20232;SDS011;37438;55.674;13.074;2023-08-20T04:59:24;5.20;;;4.72;;
20232;SDS011;37438;55.674;13.074;2023-08-20T05:02:30;8.82;;;5.75;;
20232;SDS011;37438;55.674;13.074;2023-08-20T05:05:37;9.63;;;5.10;;
20232;SDS011;37438;55.674;13.074;2023-08-20T05:08:42;5.35;;;4.85;;
20232;SDS011;37438;55.674;13.074;2023-08-20T05:11:46;5.90;;;5.15;;
20232;SDS011;37438;55.674;13.074;2023-08-20T05:17:56;5.15;;;4.75;;
20232;SDS011;37438;55.674;13.074;2023-08-20T05:21:01;5.50;;;5.00;;
20232;SDS011;37438;55.674;13.074;2023-08-20T05:27:12;6.28;;;5.13;;
20232;SDS011;37438;55.674;13.074;2023-08-20T05:30:25;4.70;;;4.28;;
20232;SDS011;37438;55.674;13.074;2023-08-20T05:33:31;5.88;;;5.38;;
20232;SDS011;37438;55.674;13.074;2023-08-20T05:36:37;7.45;;;6.28;;
20232;SDS011;37438;55.674;13.074;2023-08-20T05:39:46;9.40;;;5.90;;
20232;SDS011;37438;55.674;13.074;2023-08-20T05:42:52;5.90;;;5.40;;
20232;SDS011;37438;55.674;13.074;2023-08-20T05:45:56;9.65;;;5.47;;
20232;SDS011;37438;55.674;13.074;2023-08-20T05:49:02;5.45;;;4.95;;
20232;SDS011;37438;55.674;13.074;2023-08-20T05:52:10;4.95;;;4.22;;
20232;SDS011;37438;55.674;13.074;2023-08-20T05:55:16;4.78;;;4.38;;
20232;SDS011;37438;55.674;13.074;2023-08-20T05:58:23;5.07;;;4.57;;
20232;SDS011;37438;55.674;13.074;2023-08-20T06:01:28;5.13;;;4.63;;
20232;SDS011;37438;55.674;13.074;2023-08-20T06:04:33;5.32;;;4.32;;
20232;SDS011;37438;55.674;13.074;2023-08-20T06:10:42;6.25;;;4.60;;
20232;SDS011;37438;55.674;13.074;2023-08-20T06:13:46;4.38;;;4.05;;
20232;SDS011;37438;55.674;13.074;2023-08-20T06:16:51;5.68;;;4.38;;
20232;SDS011;37438;55.674;13.074;2023-08-20T06:19:57;6.68;;;5.03;;
20232;SDS011;37438;55.674;13.074;2023-08-20T06:23:02;7.45;;;4.10;;
20232;SDS011;37438;55.674;13.074;2023-08-20T06:26:07;7.03;;;4.22;;
20232;SDS011;37438;55.674;13.074;2023-08-20T06:29:11;4.38;;;4.07;;
20232;SDS011;37438;55.674;13.074;2023-08-20T06:32:16;4.63;;;4.20;;
20232;SDS011;37438;55.674;13.074;2023-08-20T06:35:20;5.10;;;4.60;;
20232;SDS011;37438;55.674;13.074;2023-08-20T06:41:29;5.18;;;4.68;;
20232;SDS011;37438;55.674;13.074;2023-08-20T06:44:33;6.47;;;5.28;;
20232;SDS011;37438;55.674;13.074;2023-08-20T06:47:38;5.88;;;5.30;;
20232;SDS011;37438;55.674;13.074;2023-08-20T06:50:43;6.07;;;5.47;;
20232;SDS011;37438;55.674;13.074;2023-08-20T06:53:48;7.57;;;5.75;;
20232;SDS011;37438;55.674;13.074;2023-08-20T06:56:53;6.65;;;5.22;;
20232;SDS011;37438;55.674;13.074;2023-08-20T07:03:01;7.00;;;6.38;;
20232;SDS011;37438;55.674;13.074;2023-08-20T07:06:08;6.90;;;6.35;;
20232;SDS011;37438;55.674;13.074;2023-08-20T07:09:13;11.30;;;6.18;;
20232;SDS011;37438;55.674;13.074;2023-08-20T07:12:18;7.63;;;6.82;;
20232;SDS011;37438;55.674;13.074;2023-08-20T07:15:22;8.68;;;6.93;;
20232;SDS011;37438;55.674;13.074;2023-08-20T07:21:31;9.23;;;7.32;;
20232;SDS011;37438;55.674;13.074;2023-08-20T07:24:36;10.13;;;6.65;;
20232;SDS011;37438;55.674;13.074;2023-08-20T07:27:41;9.60;;;7.35;;
20232;SDS011;37438;55.674;13.074;2023-08-20T07:30:47;8.18;;;7.47;;
20232;SDS011;37438;55.674;13.074;2023-08-20T07:33:52;8.90;;;8.00;;
20232;SDS011;37438;55.674;13.074;2023-08-20T07:36:58;9.13;;;8.07;;
20232;SDS011;37438;55.674;13.074;2023-08-20T07:43:07;8.05;;;7.28;;
20232;SDS011;37438;55.674;13.074;2023-08-20T07:46:12;24.30;;;8.98;;
20232;SDS011;37438;55.674;13.074;2023-08-20T07:49:18;9.57;;;6.22;;
20232;SDS011;37438;55.674;13.074;2023-08-20T07:52:22;9.32;;;6.68;;
20232;SDS011;37438;55.674;13.074;2023-08-20T07:55:26;8.48;;;5.97;;
20232;SDS011;37438;55.674;13.074;2023-08-20T07:58:31;7.30;;;6.55;;
20232;SDS011;37438;55.674;13.074;2023-08-20T08:01:36;6.80;;;6.03;;
20232;SDS011;37438;55.674;13.074;2023-08-20T08:04:41;6.75;;;5.75;;
20232;SDS011;37438;55.674;13.074;2023-08-20T08:07:49;9.65;;;5.50;;
20232;SDS011;37438;55.674;13.074;2023-08-20T08:10:53;11.35;;;6.07;;
20232;SDS011;37438;55.674;13.074;2023-08-20T08:13:58;15.55;;;6.35;;
20232;SDS011;37438;55.674;13.074;2023-08-20T08:20:07;8.98;;;5.28;;
20232;SDS011;37438;55.674;13.074;2023-08-20T08:23:12;8.57;;;5.65;;
20232;SDS011;37438;55.674;13.074;2023-08-20T08:26:17;12.43;;;6.75;;
20232;SDS011;37438;55.674;13.074;2023-08-20T08:29:21;11.88;;;7.07;;
20232;SDS011;37438;55.674;13.074;2023-08-20T08:32:26;17.00;;;9.18;;
20232;SDS011;37438;55.674;13.074;2023-08-20T08:35:30;16.60;;;10.05;;
20232;SDS011;37438;55.674;13.074;2023-08-20T08:38:35;17.63;;;9.13;;
20232;SDS011;37438;55.674;13.074;2023-08-20T08:41:40;13.90;;;8.57;;
20232;SDS011;37438;55.674;13.074;2023-08-20T08:44:46;16.35;;;8.93;;
20232;SDS011;37438;55.674;13.074;2023-08-20T08:47:50;13.65;;;8.43;;
20232;SDS011;37438;55.674;13.074;2023-08-20T08:50:58;11.63;;;7.53;;
20232;SDS011;37438;55.674;13.074;2023-08-20T08:54:04;13.23;;;8.00;;
20232;SDS011;37438;55.674;13.074;2023-08-20T08:57:09;11.65;;;7.53;;
20232;SDS011;37438;55.674;13.074;2023-08-20T09:00:13;8.45;;;6.40;;
20232;SDS011;37438;55.674;13.074;2023-08-20T09:03:18;9.02;;;6.75;;
20232;SDS011;37438;55.674;13.074;2023-08-20T09:06:23;7.18;;;6.45;;
20232;SDS011;37438;55.674;13.074;2023-08-20T09:09:28;10.38;;;7.15;;
20232;SDS011;37438;55.674;13.074;2023-08-20T09:12:34;9.23;;;7.07;;
20232;SDS011;37438;55.674;13.074;2023-08-20T09:15:39;10.63;;;7.38;;
20232;SDS011;37438;55.674;13.074;2023-08-20T09:18:44;11.40;;;7.45;;
20232;SDS011;37438;55.674;13.074;2023-08-20T09:21:49;11.55;;;7.88;;
20232;SDS011;37438;55.674;13.074;2023-08-20T09:24:57;19.73;;;9.10;;
20232;SDS011;37438;55.674;13.074;2023-08-20T09:28:02;20.08;;;9.45;;
20232;SDS011;37438;55.674;13.074;2023-08-20T09:31:08;24.75;;;11.68;;
20232;SDS011;37438;55.674;13.074;2023-08-20T09:34:14;21.92;;;10.73;;
20232;SDS011;37438;55.674;13.074;2023-08-20T09:37:20;29.80;;;11.88;;
20232;SDS011;37438;55.674;13.074;2023-08-20T09:40:26;27.23;;;10.77;;
20232;SDS011;37438;55.674;13.074;2023-08-20T09:43:31;26.83;;;10.98;;
20232;SDS011;37438;55.674;13.074;2023-08-20T09:46:39;26.45;;;11.70;;
20232;SDS011;37438;55.674;13.074;2023-08-20T09:49:47;31.48;;;12.20;;
20232;SDS011;37438;55.674;13.074;2023-08-20T09:52:59;22.40;;;11.43;;
20232;SDS011;37438;55.674;13.074;2023-08-20T09:56:15;20.10;;;11.13;;
20232;SDS011;37438;55.674;13.074;2023-08-20T09:59:25;24.45;;;12.32;;
20232;SDS011;37438;55.674;13.074;2023-08-20T10:02:30;23.90;;;12.13;;
20232;SDS011;37438;55.674;13.074;2023-08-20T10:05:35;26.83;;;12.57;;
20232;SDS011;37438;55.674;13.074;2023-08-20T10:08:40;24.00;;;11.50;;
20232;SDS011;37438;55.674;13.074;2023-08-20T10:11:45;21.98;;;11.07;;
20232;SDS011;37438;55.674;13.074;2023-08-20T10:14:50;36.80;;;12.57;;
20232;SDS011;37438;55.674;13.074;2023-08-20T10:17:55;33.20;;;13.30;;
20232;SDS011;37438;55.674;13.074;2023-08-20T10:21:01;32.90;;;15.70;;
20232;SDS011;37438;55.674;13.074;2023-08-20T10:24:07;29.42;;;15.00;;
20232;SDS011;37438;55.674;13.074;2023-08-20T10:27:11;43.42;;;16.33;;
20232;SDS011;37438;55.674;13.074;2023-08-20T10:30:17;42.92;;;16.08;;
20232;SDS011;37438;55.674;13.074;2023-08-20T10:33:24;31.60;;;15.07;;
20232;SDS011;37438;55.674;13.074;2023-08-20T10:36:28;30.02;;;15.60;;
20232;SDS011;37438;55.674;13.074;2023-08-20T10:39:33;30.88;;;15.18;;
20232;SDS011;37438;55.674;13.074;2023-08-20T10:42:40;29.77;;;15.02;;
20232;SDS011;37438;55.674;13.074;2023-08-20T10:45:47;28.35;;;14.27;;
20232;SDS011;37438;55.674;13.074;2023-08-20T10:49:27;30.58;;;15.55;;
20232;SDS011;37438;55.674;13.074;2023-08-20T10:52:32;23.45;;;12.68;;
20232;SDS011;37438;55.674;13.074;2023-08-20T10:55:37;29.33;;;12.13;;
20232;SDS011;37438;55.674;13.074;2023-08-20T10:58:42;24.15;;;11.73;;
20232;SDS011;37438;55.674;13.074;2023-08-20T11:01:51;19.95;;;10.73;;
20232;SDS011;37438;55.674;13.074;2023-08-20T11:05:00;25.45;;;9.73;;
20232;SDS011;37438;55.674;13.074;2023-08-20T11:08:04;18.60;;;9.50;;
20232;SDS011;37438;55.674;13.074;2023-08-20T11:11:12;17.08;;;9.50;;
20232;SDS011;37438;55.674;13.074;2023-08-20T11:14:17;19.17;;;8.98;;
20232;SDS011;37438;55.674;13.074;2023-08-20T11:17:23;20.55;;;9.57;;
20232;SDS011;37438;55.674;13.074;2023-08-20T11:20:28;16.13;;;7.75;;
20232;SDS011;37438;55.674;13.074;2023-08-20T11:23:35;15.48;;;8.70;;
20232;SDS011;37438;55.674;13.074;2023-08-20T11:26:40;12.00;;;5.55;;
20232;SDS011;37438;55.674;13.074;2023-08-20T11:29:45;8.52;;;5.43;;
20232;SDS011;37438;55.674;13.074;2023-08-20T11:32:53;10.35;;;5.35;;
20232;SDS011;37438;55.674;13.074;2023-08-20T11:35:57;6.72;;;4.55;;
20232;SDS011;37438;55.674;13.074;2023-08-20T11:39:02;8.07;;;5.13;;
20232;SDS011;37438;55.674;13.074;2023-08-20T11:42:06;6.65;;;5.15;;
20232;SDS011;37438;55.674;13.074;2023-08-20T11:45:12;9.93;;;5.07;;
20232;SDS011;37438;55.674;13.074;2023-08-20T11:48:16;8.52;;;4.95;;
20232;SDS011;37438;55.674;13.074;2023-08-20T11:51:21;5.20;;;4.47;;
20232;SDS011;37438;55.674;13.074;2023-08-20T11:54:25;6.75;;;4.47;;
20232;SDS011;37438;55.674;13.074;2023-08-20T11:57:30;5.95;;;3.92;;
20232;SDS011;37438;55.674;13.074;2023-08-20T12:00:35;7.97;;;4.97;;
20232;SDS011;37438;55.674;13.074;2023-08-20T12:03:43;5.93;;;4.40;;
20232;SDS011;37438;55.674;13.074;2023-08-20T12:06:52;8.45;;;4.70;;
20232;SDS011;37438;55.674;13.074;2023-08-20T12:10:19;10.25;;;4.75;;
20232;SDS011;37438;55.674;13.074;2023-08-20T12:13:25;6.88;;;4.05;;
20232;SDS011;37438;55.674;13.074;2023-08-20T12:16:30;8.30;;;5.32;;
20232;SDS011;37438;55.674;13.074;2023-08-20T12:19:34;9.45;;;5.30;;
20232;SDS011;37438;55.674;13.074;2023-08-20T12:22:39;6.10;;;3.95;;
20232;SDS011;37438;55.674;13.074;2023-08-20T12:25:49;10.80;;;5.07;;
20232;SDS011;37438;55.674;13.074;2023-08-20T12:28:54;12.65;;;5.05;;
20232;SDS011;37438;55.674;13.074;2023-08-20T12:31:59;7.97;;;4.00;;
20232;SDS011;37438;55.674;13.074;2023-08-20T12:35:05;8.02;;;3.47;;
20232;SDS011;37438;55.674;13.074;2023-08-20T12:38:10;9.93;;;5.60;;
20232;SDS011;37438;55.674;13.074;2023-08-20T12:41:15;8.10;;;4.82;;
20232;SDS011;37438;55.674;13.074;2023-08-20T12:44:19;6.60;;;4.05;;
20232;SDS011;37438;55.674;13.074;2023-08-20T12:47:24;10.30;;;4.78;;
20232;SDS011;37438;55.674;13.074;2023-08-20T12:50:29;8.13;;;3.80;;
20232;SDS011;37438;55.674;13.074;2023-08-20T12:53:33;9.13;;;4.90;;
20232;SDS011;37438;55.674;13.074;2023-08-20T12:56:40;6.45;;;3.92;;
20232;SDS011;37438;55.674;13.074;2023-08-20T12:59:45;9.98;;;4.00;;
20232;SDS011;37438;55.674;13.074;2023-08-20T13:02:50;13.15;;;4.15;;
20232;SDS011;37438;55.674;13.074;2023-08-20T13:05:55;11.55;;;4.88;;
20232;SDS011;37438;55.674;13.074;2023-08-20T13:09:03;14.15;;;4.75;;
20232;SDS011;37438;55.674;13.074;2023-08-20T13:12:08;4.05;;;2.58;;
20232;SDS011;37438;55.674;13.074;2023-08-20T13:15:16;8.43;;;3.83;;
20232;SDS011;37438;55.674;13.074;2023-08-20T13:18:21;10.75;;;3.20;;
20232;SDS011;37438;55.674;13.074;2023-08-20T13:21:29;7.57;;;2.72;;
20232;SDS011;37438;55.674;13.074;2023-08-20T13:24:33;6.00;;;2.42;;
20232;SDS011;37438;55.674;13.074;2023-08-20T13:27:38;8.48;;;3.13;;
20232;SDS011;37438;55.674;13.074;2023-08-20T13:30:42;6.72;;;2.88;;
20232;SDS011;37438;55.674;13.074;2023-08-20T13:33:47;6.93;;;2.65;;
20232;SDS011;37438;55.674;13.074;2023-08-20T13:36:53;9.07;;;2.20;;
20232;SDS011;37438;55.674;13.074;2023-08-20T13:39:58;6.80;;;2.50;;
20232;SDS011;37438;55.674;13.074;2023-08-20T13:43:03;8.13;;;3.60;;
20232;SDS011;37438;55.674;13.074;2023-08-20T13:46:07;10.65;;;4.32;;
20232;SDS011;37438;55.674;13.074;2023-08-20T13:49:12;10.75;;;3.30;;
20232;SDS011;37438;55.674;13.074;2023-08-20T13:52:16;13.45;;;3.95;;
20232;SDS011;37438;55.674;13.074;2023-08-20T13:55:21;8.25;;;3.42;;
20232;SDS011;37438;55.674;13.074;2023-08-20T13:58:25;5.95;;;2.78;;
20232;SDS011;37438;55.674;13.074;2023-08-20T14:01:30;8.15;;;2.42;;
20232;SDS011;37438;55.674;13.074;2023-08-20T14:04:35;6.53;;;2.90;;
20232;SDS011;37438;55.674;13.074;2023-08-20T14:07:40;7.60;;;3.22;;
20232;SDS011;37438;55.674;13.074;2023-08-20T14:10:45;4.10;;;1.92;;
20232;SDS011;37438;55.674;13.074;2023-08-20T14:13:49;7.65;;;2.58;;
20232;SDS011;37438;55.674;13.074;2023-08-20T14:16:54;9.25;;;2.22;;
20232;SDS011;37438;55.674;13.074;2023-08-20T14:19:58;11.23;;;2.72;;
20232;SDS011;37438;55.674;13.074;2023-08-20T14:23:02;4.75;;;2.08;;
20232;SDS011;37438;55.674;13.074;2023-08-20T14:26:07;9.85;;;2.45;;
20232;SDS011;37438;55.674;13.074;2023-08-20T14:29:11;7.15;;;2.22;;
20232;SDS011;37438;55.674;13.074;2023-08-20T14:32:16;9.38;;;2.55;;
20232;SDS011;37438;55.674;13.074;2023-08-20T14:35:21;5.60;;;1.20;;
20232;SDS011;37438;55.674;13.074;2023-08-20T14:38:25;4.60;;;2.00;;
20232;SDS011;37438;55.674;13.074;2023-08-20T14:41:32;5.60;;;2.10;;
20232;SDS011;37438;55.674;13.074;2023-08-20T14:44:36;6.53;;;1.92;;
20232;SDS011;37438;55.674;13.074;2023-08-20T14:47:40;5.30;;;1.80;;
20232;SDS011;37438;55.674;13.074;2023-08-20T14:50:45;5.30;;;1.75;;
20232;SDS011;37438;55.674;13.074;2023-08-20T14:53:49;5.28;;;1.33;;
20232;SDS011;37438;55.674;13.074;2023-08-20T14:56:54;4.00;;;1.50;;
20232;SDS011;37438;55.674;13.074;2023-08-20T14:59:59;3.92;;;1.45;;
20232;SDS011;37438;55.674;13.074;2023-08-20T15:03:03;4.40;;;1.30;;
20232;SDS011;37438;55.674;13.074;2023-08-20T15:06:10;4.93;;;1.40;;
20232;SDS011;37438;55.674;13.074;2023-08-20T15:09:14;3.20;;;1.45;;
20232;SDS011;37438;55.674;13.074;2023-08-20T15:12:19;6.72;;;1.92;;
20232;SDS011;37438;55.674;13.074;2023-08-20T15:15:24;4.57;;;1.63;;
20232;SDS011;37438;55.674;13.074;2023-08-20T15:18:33;4.57;;;1.15;;
20232;SDS011;37438;55.674;13.074;2023-08-20T15:21:37;4.38;;;0.95;;
20232;SDS011;37438;55.674;13.074;2023-08-20T15:24:43;3.85;;;1.23;;
20232;SDS011;37438;55.674;13.074;2023-08-20T15:27:47;4.93;;;1.27;;
20232;SDS011;37438;55.674;13.074;2023-08-20T15:30:52;6.45;;;1.60;;
20232;SDS011;37438;55.674;13.074;2023-08-20T15:33:58;4.95;;;1.13;;
20232;SDS011;37438;55.674;13.074;2023-08-20T15:37:03;3.70;;;1.30;;
20232;SDS011;37438;55.674;13.074;2023-08-20T15:40:08;19.77;;;2.65;;
20232;SDS011;37438;55.674;13.074;2023-08-20T15:43:16;4.47;;;1.27;;
20232;SDS011;37438;55.674;13.074;2023-08-20T15:46:20;5.00;;;1.70;;
20232;SDS011;37438;55.674;13.074;2023-08-20T15:49:27;5.03;;;1.98;;
20232;SDS011;37438;55.674;13.074;2023-08-20T15:52:31;4.50;;;1.60;;
20232;SDS011;37438;55.674;13.074;2023-08-20T15:55:36;6.88;;;1.77;;
20232;SDS011;37438;55.674;13.074;2023-08-20T15:58:40;4.25;;;1.20;;
20232;SDS011;37438;55.674;13.074;2023-08-20T16:01:45;5.13;;;1.48;;
20232;SDS011;37438;55.674;13.074;2023-08-20T16:04:51;4.55;;;1.35;;
20232;SDS011;37438;55.674;13.074;2023-08-20T16:07:56;11.13;;;1.85;;
20232;SDS011;37438;55.674;13.074;2023-08-20T16:11:01;7.30;;;3.83;;
20232;SDS011;37438;55.674;13.074;2023-08-20T16:14:09;5.63;;;1.70;;
20232;SDS011;37438;55.674;13.074;2023-08-20T16:17:14;7.50;;;1.60;;
20232;SDS011;37438;55.674;13.074;2023-08-20T16:20:18;3.88;;;1.67;;
20232;SDS011;37438;55.674;13.074;2023-08-20T16:23:24;4.05;;;1.25;;
20232;SDS011;37438;55.674;13.074;2023-08-20T16:26:29;2.60;;;1.20;;
20232;SDS011;37438;55.674;13.074;2023-08-20T16:29:33;5.88;;;1.75;;
20232;SDS011;37438;55.674;13.074;2023-08-20T16:32:38;6.90;;;1.85;;
20232;SDS011;37438;55.674;13.074;2023-08-20T16:35:46;4.93;;;1.58;;
20232;SDS011;37438;55.674;13.074;2023-08-20T16:38:50;3.08;;;1.77;;
20232;SDS011;37438;55.674;13.074;2023-08-20T16:41:55;3.90;;;1.70;;
20232;SDS011;37438;55.674;13.074;2023-08-20T16:44:59;6.38;;;2.72;;
20232;SDS011;37438;55.674;13.074;2023-08-20T16:48:04;6.65;;;2.00;;
20232;SDS011;37438;55.674;13.074;2023-08-20T16:51:09;4.53;;;1.70;;
20232;SDS011;37438;55.674;13.074;2023-08-20T16:54:13;7.10;;;2.10;;
20232;SDS011;37438;55.674;13.074;2023-08-20T16:57:18;4.55;;;1.35;;
20232;SDS011;37438;55.674;13.074;2023-08-20T17:00:22;6.78;;;2.47;;
20232;SDS011;37438;55.674;13.074;2023-08-20T17:03:27;7.30;;;2.17;;
20232;SDS011;37438;55.674;13.074;2023-08-20T17:06:32;5.40;;;1.25;;
20232;SDS011;37438;55.674;13.074;2023-08-20T17:09:36;5.70;;;1.48;;
20232;SDS011;37438;55.674;13.074;2023-08-20T17:12:41;5.88;;;1.92;;
20232;SDS011;37438;55.674;13.074;2023-08-20T17:15:48;6.43;;;1.90;;
20232;SDS011;37438;55.674;13.074;2023-08-20T17:18:55;9.77;;;1.67;;
20232;SDS011;37438;55.674;13.074;2023-08-20T17:22:00;6.90;;;2.40;;
20232;SDS011;37438;55.674;13.074;2023-08-20T17:25:04;7.45;;;2.03;;
20232;SDS011;37438;55.674;13.074;2023-08-20T17:28:10;6.57;;;1.50;;
20232;SDS011;37438;55.674;13.074;2023-08-20T17:31:15;6.07;;;1.42;;
20232;SDS011;37438;55.674;13.074;2023-08-20T17:34:20;4.53;;;2.30;;
20232;SDS011;37438;55.674;13.074;2023-08-20T17:37:24;8.38;;;2.42;;
20232;SDS011;37438;55.674;13.074;2023-08-20T17:40:29;8.30;;;2.13;;
20232;SDS011;37438;55.674;13.074;2023-08-20T17:43:33;7.18;;;2.28;;
20232;SDS011;37438;55.674;13.074;2023-08-20T17:46:48;9.30;;;2.38;;
20232;SDS011;37438;55.674;13.074;2023-08-20T17:49:53;10.45;;;2.05;;
20232;SDS011;37438;55.674;13.074;2023-08-20T17:52:58;6.15;;;1.80;;
20232;SDS011;37438;55.674;13.074;2023-08-20T17:56:06;4.55;;;1.95;;
20232;SDS011;37438;55.674;13.074;2023-08-20T17:59:10;4.18;;;2.10;;
20232;SDS011;37438;55.674;13.074;2023-08-20T18:02:15;6.85;;;2.63;;
20232;SDS011;37438;55.674;13.074;2023-08-20T18:05:20;3.67;;;1.65;;
20232;SDS011;37438;55.674;13.074;2023-08-20T18:08:24;8.63;;;2.20;;
20232;SDS011;37438;55.674;13.074;2023-08-20T18:11:29;4.38;;;1.73;;
20232;SDS011;37438;55.674;13.074;2023-08-20T18:14:33;5.07;;;2.20;;
20232;SDS011;37438;55.674;13.074;2023-08-20T18:17:38;4.45;;;1.65;;
20232;SDS011;37438;55.674;13.074;2023-08-20T18:20:43;7.53;;;2.17;;
20232;SDS011;37438;55.674;13.074;2023-08-20T18:23:47;6.70;;;1.88;;
20232;SDS011;37438;55.674;13.074;2023-08-20T18:26:51;10.13;;;2.58;;
20232;SDS011;37438;55.674;13.074;2023-08-20T18:29:56;10.50;;;2.47;;
20232;SDS011;37438;55.674;13.074;2023-08-20T18:33:00;8.55;;;2.97;;
20232;SDS011;37438;55.674;13.074;2023-08-20T18:36:05;9.25;;;2.40;;
20232;SDS011;37438;55.674;13.074;2023-08-20T18:39:10;10.35;;;2.75;;
20232;SDS011;37438;55.674;13.074;2023-08-20T18:42:18;6.00;;;2.75;;
20232;SDS011;37438;55.674;13.074;2023-08-20T18:45:22;10.95;;;2.47;;
20232;SDS011;37438;55.674;13.074;2023-08-20T18:48:27;6.50;;;2.40;;
20232;SDS011;37438;55.674;13.074;2023-08-20T18:51:31;8.27;;;2.42;;
20232;SDS011;37438;55.674;13.074;2023-08-20T18:54:36;7.88;;;3.20;;
20232;SDS011;37438;55.674;13.074;2023-08-20T18:57:40;10.18;;;3.03;;
20232;SDS011;37438;55.674;13.074;2023-08-20T19:03:49;9.05;;;2.78;;
20232;SDS011;37438;55.674;13.074;2023-08-20T19:06:54;10.48;;;3.38;;
20232;SDS011;37438;55.674;13.074;2023-08-20T19:09:59;11.63;;;3.25;;